createdAt,value
2022-12-18T00:01:29.578Z,123.13
2022-12-18T00:03:57.100Z,122.45
2022-12-18T00:06:25.984Z,126.30
2022-12-18T00:08:53.268Z,123.22
2022-12-18T00:11:22.858Z,129.63
2022-12-18T00:13:50.930Z,124.05
2022-12-18T00:16:23.650Z,130.65
2022-12-18T00:18:53.350Z,123.90
2022-12-18T00:21:21.474Z,110.05
2022-12-18T00:23:49.582Z,94.68
2022-12-18T00:26:20.537Z,83.40
2022-12-18T00:28:47.801Z,88.25
2022-12-18T00:31:20.801Z,91.90
2022-12-18T00:33:49.073Z,91.18
2022-12-18T00:36:23.085Z,100.95
2022-12-18T00:38:52.747Z,98.78
2022-12-18T00:41:39.920Z,90.57
2022-12-18T00:44:08.749Z,79.70
2022-12-18T00:46:35.666Z,80.03
2022-12-18T00:49:03.564Z,79.47
2022-12-18T00:51:30.466Z,72.65
2022-12-18T00:53:57.341Z,73.57
2022-12-18T00:56:25.299Z,63.75
2022-12-18T00:58:53.437Z,67.15
2022-12-18T01:01:20.968Z,72.32
2022-12-18T01:03:47.990Z,65.03
2022-12-18T01:06:17.799Z,60.95
2022-12-18T01:08:45.412Z,60.80
2022-12-18T01:11:23.162Z,60.53
2022-12-18T01:13:50.347Z,61.20
2022-12-18T01:16:18.337Z,62.92
2022-12-18T01:18:45.789Z,57.97
2022-12-18T01:21:15.841Z,60.90
2022-12-18T01:23:43.333Z,66.22
2022-12-18T01:26:13.216Z,63.60
2022-12-18T01:28:41.148Z,68.35
2022-12-18T01:31:34.529Z,66.15
2022-12-18T01:34:04.506Z,62.85
2022-12-18T01:36:34.359Z,68.03
2022-12-18T01:39:11.886Z,66.22
2022-12-18T01:42:12.126Z,68.50
2022-12-18T01:45:06.202Z,67.57
2022-12-18T01:47:53.909Z,63.88
2022-12-18T01:50:28.738Z,67.60
2022-12-18T01:53:05.628Z,63.63
2022-12-18T01:55:40.942Z,63.08
2022-12-18T01:58:08.421Z,59.88
2022-12-18T02:00:38.103Z,63.25
2022-12-18T02:03:05.536Z,60.05
2022-12-18T02:05:46.266Z,57.58
2022-12-18T02:08:43.928Z,61.58
2022-12-18T02:11:38.955Z,57.78
2022-12-18T02:14:33.355Z,59.10
2022-12-18T02:17:19.934Z,62.50
2022-12-18T02:20:06.648Z,59.55
2022-12-18T02:22:43.358Z,61.50
2022-12-18T02:25:51.416Z,58.35
2022-12-18T02:28:21.994Z,59.42
2022-12-18T02:30:52.478Z,56.13
2022-12-18T02:33:22.040Z,57.72
2022-12-18T02:35:54.098Z,54.85
2022-12-18T02:38:21.948Z,55.78
2022-12-18T02:40:56.980Z,54.85
2022-12-18T02:43:25.052Z,51.25
2022-12-18T02:45:57.316Z,57.72
2022-12-18T02:48:35.148Z,53.83
2022-12-18T02:51:02.096Z,57.13
2022-12-18T02:53:46.442Z,55.95
2022-12-18T02:56:20.025Z,60.17
2022-12-18T02:59:34.974Z,60.30
2022-12-18T03:02:14.136Z,57.13
2022-12-18T03:04:48.569Z,59.17
2022-12-18T03:07:24.532Z,57.00
2022-12-18T03:09:59.478Z,58.22
2022-12-18T03:12:40.763Z,58.33
2022-12-18T03:15:43.659Z,55.70
2022-12-18T03:18:21.410Z,62.28
2022-12-18T03:20:53.423Z,58.63
2022-12-18T03:23:27.174Z,60.47
2022-12-18T03:25:57.824Z,59.03
2022-12-18T03:28:31.595Z,59.30
2022-12-18T03:31:04.013Z,56.95
2022-12-18T03:33:47.510Z,60.25
2022-12-18T03:36:15.786Z,56.85
2022-12-18T03:38:42.884Z,57.78
2022-12-18T03:41:25.430Z,60.10
2022-12-18T03:44:13.933Z,62.85
2022-12-18T03:46:46.525Z,62.20
2022-12-18T03:49:18.085Z,60.83
2022-12-18T03:52:01.092Z,62.22
2022-12-18T03:54:31.239Z,61.55
2022-12-18T03:57:12.991Z,64.82
2022-12-18T03:59:41.142Z,59.80
2022-12-18T04:02:10.472Z,59.80
2022-12-18T04:04:40.745Z,60.58
2022-12-18T04:07:08.669Z,62.50
2022-12-18T04:09:40.355Z,60.15
2022-12-18T04:14:36.948Z,57.45
2022-12-18T04:17:07.374Z,66.07
2022-12-18T04:19:34.569Z,60.95
2022-12-18T04:22:02.967Z,64.63
2022-12-18T04:24:35.288Z,61.05
2022-12-18T04:27:08.850Z,65.97
2022-12-18T04:29:42.372Z,61.60
2022-12-18T04:32:10.071Z,65.50
2022-12-18T04:34:38.013Z,65.40
2022-12-18T04:37:05.473Z,65.38
2022-12-18T04:39:33.285Z,67.80
2022-12-18T04:42:05.887Z,62.55
2022-12-18T04:44:32.847Z,65.20
2022-12-18T04:46:59.630Z,66.82
2022-12-18T04:49:26.482Z,63.00
2022-12-18T04:51:54.662Z,63.95
2022-12-18T04:54:22.179Z,69.13
2022-12-18T04:56:49.881Z,66.72
2022-12-18T04:59:16.921Z,72.45
2022-12-18T05:01:44.029Z,68.68
2022-12-18T05:04:11.474Z,68.50
2022-12-18T05:06:38.421Z,73.35
2022-12-18T05:09:05.337Z,67.07
2022-12-18T05:11:32.862Z,66.95
2022-12-18T05:13:59.662Z,71.35
2022-12-18T05:16:26.524Z,74.03
2022-12-18T05:18:53.563Z,67.03
2022-12-18T05:21:20.364Z,72.00
2022-12-18T05:23:47.306Z,74.00
2022-12-18T05:26:18.360Z,75.18
2022-12-18T05:28:46.101Z,76.82
2022-12-18T05:31:13.084Z,75.03
2022-12-18T05:33:40.278Z,75.18
2022-12-18T05:36:09.003Z,74.85
2022-12-18T05:38:37.640Z,77.13
2022-12-18T05:41:06.165Z,75.47
2022-12-18T05:43:36.045Z,74.13
2022-12-18T05:46:07.509Z,77.35
2022-12-18T05:48:34.986Z,81.15
2022-12-18T05:51:08.119Z,73.97
2022-12-18T05:53:36.411Z,71.15
2022-12-18T05:56:05.779Z,73.68
2022-12-18T05:58:33.696Z,71.30
2022-12-18T06:01:08.550Z,70.78
2022-12-18T06:03:35.554Z,73.55
2022-12-18T06:06:02.984Z,76.38
2022-12-18T06:08:29.990Z,71.45
2022-12-18T06:10:56.822Z,67.95
2022-12-18T06:13:23.746Z,67.07
2022-12-18T06:15:50.662Z,67.57
2022-12-18T06:18:17.493Z,71.05
2022-12-18T06:20:44.314Z,74.20
2022-12-18T06:23:11.197Z,70.72
2022-12-18T06:25:39.654Z,68.88
2022-12-18T06:28:06.697Z,76.03
2022-12-18T06:30:33.486Z,70.75
2022-12-18T06:33:00.305Z,73.13
2022-12-18T06:35:27.193Z,70.72
2022-12-18T06:37:54.173Z,75.65
2022-12-18T06:40:21.275Z,74.03
2022-12-18T06:42:48.072Z,74.93
2022-12-18T06:45:17.668Z,71.07
2022-12-18T06:47:44.801Z,73.88
2022-12-18T06:50:13.205Z,72.68
2022-12-18T06:52:41.371Z,76.10
2022-12-18T06:55:09.943Z,72.43
2022-12-18T06:57:36.824Z,74.10
2022-12-18T07:00:05.480Z,69.47
2022-12-18T07:02:32.568Z,77.00
2022-12-18T07:04:59.707Z,75.60
2022-12-18T07:07:26.565Z,74.88
2022-12-18T07:09:53.396Z,72.18
2022-12-18T07:12:20.414Z,74.07
2022-12-18T07:14:47.250Z,66.00
2022-12-18T07:17:14.213Z,66.55
2022-12-18T07:19:41.010Z,65.50
2022-12-18T07:22:07.788Z,60.80
2022-12-18T07:24:35.672Z,57.00
2022-12-18T07:27:02.997Z,60.83
2022-12-18T07:29:29.942Z,55.70
2022-12-18T07:31:56.880Z,58.13
2022-12-18T07:34:23.783Z,64.63
2022-12-18T07:36:50.550Z,65.03
2022-12-18T07:39:17.319Z,65.68
2022-12-18T07:41:47.576Z,67.47
2022-12-18T07:44:16.506Z,59.95
2022-12-18T07:46:43.278Z,70.63
2022-12-18T07:49:10.117Z,67.03
2022-12-18T07:51:37.148Z,67.32
2022-12-18T07:54:04.322Z,66.80
2022-12-18T07:56:31.678Z,74.90
2022-12-18T07:59:00.276Z,68.30
2022-12-18T08:01:27.596Z,70.05
2022-12-18T08:03:54.837Z,74.05
2022-12-18T08:06:23.772Z,75.10
2022-12-18T08:08:55.794Z,60.78
2022-12-18T08:11:25.064Z,64.75
2022-12-18T08:13:52.588Z,61.55
2022-12-18T08:16:20.145Z,64.63
2022-12-18T08:18:47.839Z,59.50
2022-12-18T08:21:24.168Z,60.25
2022-12-18T08:23:52.856Z,55.03
2022-12-18T08:26:20.986Z,59.58
2022-12-18T08:28:48.190Z,55.72
2022-12-18T08:31:15.183Z,61.40
2022-12-18T08:33:42.820Z,62.28
2022-12-18T08:36:11.264Z,62.58
2022-12-18T08:38:38.282Z,62.10
2022-12-18T08:41:10.585Z,65.32
2022-12-18T08:43:55.956Z,66.50
2022-12-18T08:46:24.896Z,61.63
2022-12-18T08:48:52.984Z,63.13
2022-12-18T08:51:20.243Z,66.82
2022-12-18T08:53:47.811Z,59.35
2022-12-18T08:56:15.580Z,63.00
2022-12-18T08:58:43.053Z,57.60
2022-12-18T09:01:11.919Z,66.22
2022-12-18T09:03:40.232Z,62.03
2022-12-18T09:06:07.990Z,58.22
2022-12-18T09:08:34.923Z,54.45
2022-12-18T09:11:01.852Z,55.63
2022-12-18T09:13:28.776Z,57.03
2022-12-18T09:15:57.038Z,52.65
2022-12-18T09:18:24.795Z,56.78
2022-12-18T09:20:54.119Z,54.15
2022-12-18T09:23:22.127Z,55.13
2022-12-18T09:25:49.425Z,53.13
2022-12-18T09:28:22.052Z,51.90
2022-12-18T09:30:50.462Z,48.33
2022-12-18T09:33:18.440Z,46.30
2022-12-18T09:35:46.906Z,49.53
2022-12-18T09:38:17.051Z,50.78
2022-12-18T09:40:46.484Z,47.03
2022-12-18T09:43:20.646Z,47.78
2022-12-18T09:45:55.235Z,45.30
2022-12-18T09:48:29.422Z,38.72
2022-12-18T09:51:03.488Z,38.15
2022-12-18T09:53:36.043Z,36.72
2022-12-18T09:56:13.433Z,38.25
2022-12-18T09:58:48.964Z,35.85
2022-12-18T10:01:21.281Z,41.60
2022-12-18T10:03:48.833Z,27.90
2022-12-18T10:06:38.176Z,33.83
2022-12-18T10:09:38.135Z,35.38
2022-12-18T10:12:14.902Z,26.75
2022-12-18T10:15:01.007Z,30.33
2022-12-18T10:17:52.692Z,30.52
2022-12-18T10:20:42.532Z,26.17
2022-12-18T10:23:27.453Z,25.05
2022-12-18T10:26:02.304Z,21.80
2022-12-18T10:28:31.257Z,25.88
2022-12-18T10:30:58.261Z,26.58
2022-12-18T10:33:30.660Z,24.25
2022-12-18T10:35:57.544Z,24.83
2022-12-18T10:38:31.417Z,23.27
2022-12-18T10:41:01.147Z,27.50
2022-12-18T10:43:34.242Z,23.85
2022-12-18T10:46:21.794Z,22.42
2022-12-18T10:48:48.667Z,25.65
2022-12-18T10:51:31.730Z,22.10
2022-12-18T10:54:01.716Z,23.80
2022-12-18T10:56:32.375Z,21.67
2022-12-18T10:59:05.913Z,22.60
2022-12-18T11:01:55.235Z,25.15
2022-12-18T11:04:31.323Z,21.98
2022-12-18T11:07:02.834Z,25.42
2022-12-18T11:09:37.792Z,24.63
2022-12-18T11:12:19.420Z,25.85
2022-12-18T11:14:54.874Z,24.23
2022-12-18T11:17:36.907Z,26.05
2022-12-18T11:20:08.259Z,26.30
2022-12-18T11:22:37.665Z,26.13
2022-12-18T11:28:03.601Z,27.38
2022-12-18T11:30:33.455Z,33.78
2022-12-18T11:33:09.672Z,26.88
2022-12-18T11:35:43.325Z,25.55
2022-12-18T11:38:22.002Z,28.25
2022-12-18T11:40:57.515Z,26.20
2022-12-18T11:43:43.493Z,27.17
2022-12-18T11:46:19.642Z,28.15
2022-12-18T11:49:07.680Z,25.85
2022-12-18T11:52:11.118Z,28.38
2022-12-18T11:54:38.064Z,28.70
2022-12-18T11:57:23.185Z,34.40
2022-12-18T12:00:16.041Z,27.30
2022-12-18T12:03:04.061Z,31.50
2022-12-18T12:05:58.265Z,29.42
2022-12-18T12:08:57.829Z,29.08
2022-12-18T12:12:12.183Z,25.90
2022-12-18T12:14:50.923Z,29.50
2022-12-18T12:17:44.235Z,28.52
2022-12-18T12:20:28.516Z,26.40
2022-12-18T12:23:16.398Z,28.52
2022-12-18T12:25:50.745Z,28.25
2022-12-18T12:28:40.484Z,34.90
2022-12-18T12:31:45.628Z,31.83
2022-12-18T12:34:14.942Z,33.38
2022-12-18T12:36:53.738Z,31.25
2022-12-18T12:39:29.347Z,29.17
2022-12-18T12:42:15.541Z,29.70
2022-12-18T12:44:52.756Z,27.25
2022-12-18T12:47:32.298Z,34.95
2022-12-18T12:50:04.733Z,30.92
2022-12-18T12:52:44.543Z,31.38
2022-12-18T12:55:20.168Z,27.63
2022-12-18T12:58:21.070Z,28.40
2022-12-18T13:01:24.178Z,29.15
2022-12-18T13:04:06.381Z,28.67
2022-12-18T13:06:57.009Z,29.52
2022-12-18T13:09:24.759Z,30.13
2022-12-18T13:12:10.039Z,30.38
2022-12-18T13:14:39.900Z,33.35
2022-12-18T13:17:30.188Z,82.13
2022-12-18T13:20:12.196Z,34.10
2022-12-18T13:22:45.207Z,32.08
2022-12-18T13:25:36.865Z,32.65
2022-12-18T13:28:09.693Z,31.70
2022-12-18T13:30:36.703Z,33.13
2022-12-18T13:33:15.281Z,34.53
2022-12-18T13:35:53.898Z,65.88
2022-12-18T13:38:33.645Z,36.30
2022-12-18T13:41:18.659Z,34.88
2022-12-18T13:43:50.307Z,33.60
2022-12-18T13:46:42.701Z,37.65
2022-12-18T13:49:15.466Z,33.97
2022-12-18T13:51:49.330Z,39.75
2022-12-18T13:54:22.147Z,33.13
2022-12-18T13:56:50.104Z,36.22
2022-12-18T13:59:27.506Z,33.53
2022-12-18T14:02:02.999Z,38.03
2022-12-18T14:04:36.777Z,36.50
2022-12-18T14:07:23.039Z,35.70
2022-12-18T14:10:12.085Z,34.17
2022-12-18T14:12:57.618Z,32.72
2022-12-18T14:15:27.718Z,37.92
2022-12-18T14:18:01.184Z,34.10
2022-12-18T14:20:33.723Z,33.05
2022-12-18T14:23:01.670Z,37.45
2022-12-18T14:25:31.135Z,38.97
2022-12-18T14:28:15.553Z,36.10
2022-12-18T14:30:45.116Z,36.80
2022-12-18T14:33:17.088Z,38.60
2022-12-18T14:36:06.770Z,37.58
2022-12-18T14:38:41.056Z,34.95
2022-12-18T14:41:16.239Z,36.38
2022-12-18T14:43:49.092Z,35.60
2022-12-18T14:46:38.099Z,37.47
2022-12-18T14:49:20.018Z,35.10
2022-12-18T14:51:52.664Z,36.75
2022-12-18T14:54:21.458Z,38.67
2022-12-18T14:56:58.880Z,38.08
2022-12-18T14:59:28.181Z,37.38
2022-12-18T15:01:55.059Z,36.95
2022-12-18T15:04:42.065Z,40.13
2022-12-18T15:07:11.445Z,39.20
2022-12-18T15:09:40.601Z,38.90
2022-12-18T15:12:24.334Z,38.63
2022-12-18T15:14:51.190Z,37.15
2022-12-18T15:17:23.232Z,38.13
2022-12-18T15:19:54.601Z,38.40
2022-12-18T15:22:28.776Z,36.63
2022-12-18T15:24:57.678Z,38.08
2022-12-18T15:27:37.166Z,37.47
2022-12-18T15:30:09.970Z,45.25
2022-12-18T15:32:43.181Z,48.78
2022-12-18T15:35:10.103Z,53.30
2022-12-18T15:37:37.052Z,51.42
2022-12-18T15:40:04.843Z,58.28
2022-12-18T15:42:50.177Z,53.65
2022-12-18T15:45:17.464Z,56.38
2022-12-18T15:47:45.855Z,57.58
2022-12-18T15:50:12.724Z,60.00
2022-12-18T15:52:47.764Z,57.78
2022-12-18T15:55:35.645Z,62.47
2022-12-18T15:58:03.652Z,58.10
2022-12-18T16:00:30.798Z,65.38
2022-12-18T16:02:57.831Z,60.72
2022-12-18T16:05:25.518Z,61.47
2022-12-18T16:07:52.335Z,62.88
2022-12-18T16:10:19.239Z,61.08
2022-12-18T16:12:46.635Z,61.15
2022-12-18T16:15:18.451Z,65.85
2022-12-18T16:17:49.152Z,73.15
2022-12-18T16:20:22.059Z,74.80
2022-12-18T16:22:50.558Z,74.78
2022-12-18T16:25:23.798Z,74.53
2022-12-18T16:27:51.497Z,70.10
2022-12-18T16:30:21.644Z,76.90
2022-12-18T16:32:48.688Z,78.93
2022-12-18T16:35:17.418Z,85.03
2022-12-18T16:37:44.876Z,80.45
2022-12-18T16:40:14.482Z,83.40
2022-12-18T16:42:42.906Z,83.80
2022-12-18T16:45:12.530Z,80.03
2022-12-18T16:47:39.466Z,78.10
2022-12-18T16:50:07.418Z,88.07
2022-12-18T16:52:35.184Z,82.15
2022-12-18T16:55:02.207Z,81.88
2022-12-18T16:57:29.207Z,73.88
2022-12-18T16:59:59.912Z,74.60
2022-12-18T17:02:33.971Z,73.50
2022-12-18T17:05:01.286Z,73.47
2022-12-18T17:07:28.941Z,70.25
2022-12-18T17:09:56.350Z,86.57
2022-12-18T17:12:23.894Z,85.45
2022-12-18T17:14:50.733Z,79.07
2022-12-18T17:17:21.418Z,82.57
2022-12-18T17:19:49.269Z,78.38
2022-12-18T17:22:16.181Z,79.85
2022-12-18T17:24:43.052Z,76.78
2022-12-18T17:27:09.889Z,81.75
2022-12-18T17:29:39.136Z,73.10
2022-12-18T17:32:08.098Z,76.45
2022-12-18T17:34:34.900Z,75.63
2022-12-18T17:37:01.709Z,74.47
2022-12-18T17:39:30.829Z,94.10
2022-12-18T17:41:59.819Z,88.15
2022-12-18T17:44:27.024Z,89.75
2022-12-18T17:46:57.393Z,76.85
2022-12-18T17:49:25.671Z,73.40
2022-12-18T17:51:54.181Z,73.75
2022-12-18T17:54:21.131Z,78.55
2022-12-18T17:56:47.991Z,83.40
2022-12-18T17:59:14.979Z,109.80
2022-12-18T18:01:45.099Z,87.93
2022-12-18T18:04:12.797Z,121.18
2022-12-18T18:06:39.752Z,159.73
2022-12-18T18:09:16.110Z,136.70
2022-12-18T18:12:03.325Z,241.35
2022-12-18T18:14:30.571Z,249.88
2022-12-18T18:16:57.374Z,216.05
2022-12-18T18:19:33.075Z,225.50
2022-12-18T18:22:00.138Z,218.63
2022-12-18T18:24:27.261Z,203.93
2022-12-18T18:26:55.850Z,162.85
2022-12-18T18:29:26.539Z,179.85
2022-12-18T18:31:54.906Z,223.90
2022-12-18T18:34:24.554Z,225.38
2022-12-18T18:36:51.767Z,219.82
2022-12-18T18:39:19.638Z,246.38
2022-12-18T18:41:47.995Z,235.00
2022-12-18T18:44:16.893Z,207.05
2022-12-18T18:46:44.196Z,140.18
2022-12-18T18:49:11.671Z,127.22
2022-12-18T18:51:40.135Z,87.88
2022-12-18T18:54:06.970Z,98.07
2022-12-18T18:56:56.391Z,84.65
2022-12-18T18:59:21.500Z,98.35
2022-12-18T19:01:56.271Z,84.15
2022-12-18T19:04:23.166Z,83.65
2022-12-18T19:06:50.013Z,75.13
2022-12-18T19:09:17.640Z,68.55
2022-12-18T19:12:03.190Z,70.30
2022-12-18T19:14:30.312Z,68.22
2022-12-18T19:16:57.238Z,69.10
2022-12-18T19:19:25.455Z,65.65
2022-12-18T19:21:52.550Z,63.15
2022-12-18T19:24:22.288Z,62.38
2022-12-18T19:26:49.344Z,62.50
2022-12-18T19:29:16.299Z,66.35
2022-12-18T19:31:43.271Z,68.03
2022-12-18T19:34:10.280Z,65.60
2022-12-18T19:36:39.039Z,63.08
2022-12-18T19:39:17.221Z,60.90
2022-12-18T19:41:44.517Z,61.47
2022-12-18T19:44:13.956Z,63.50
2022-12-18T19:46:42.381Z,65.82
2022-12-18T19:49:10.963Z,59.13
2022-12-18T19:51:38.832Z,59.65
2022-12-18T19:54:05.724Z,57.22
2022-12-18T19:56:34.832Z,57.63
2022-12-18T19:59:03.445Z,57.70
2022-12-18T20:01:31.231Z,53.58
2022-12-18T20:03:59.719Z,54.08
2022-12-18T20:06:30.287Z,55.72
2022-12-18T20:09:00.552Z,59.75
2022-12-18T20:11:29.338Z,56.03
2022-12-18T20:13:56.870Z,66.78
2022-12-18T20:16:24.130Z,63.83
2022-12-18T20:18:51.402Z,59.85
2022-12-18T20:21:19.391Z,65.30
2022-12-18T20:23:46.448Z,62.53
2022-12-18T20:26:13.673Z,71.50
2022-12-18T20:28:40.827Z,67.90
2022-12-18T20:31:10.575Z,74.10
2022-12-18T20:33:41.564Z,92.22
2022-12-18T20:36:21.243Z,90.28
2022-12-18T20:38:49.750Z,106.80
2022-12-18T20:41:19.269Z,97.68
2022-12-18T20:43:46.151Z,96.53
2022-12-18T20:46:14.972Z,90.13
2022-12-18T20:48:42.905Z,92.82
2022-12-18T20:51:12.497Z,96.93
2022-12-18T20:53:40.262Z,108.13
2022-12-18T20:56:20.117Z,84.75
2022-12-18T20:58:55.045Z,90.30
2022-12-18T21:01:23.080Z,85.90
2022-12-18T21:03:50.896Z,75.32
2022-12-18T21:06:20.292Z,72.68
2022-12-18T21:08:47.190Z,67.32
2022-12-18T21:11:38.728Z,70.78
2022-12-18T21:14:10.040Z,69.50
2022-12-18T21:16:37.554Z,66.32
2022-12-18T21:19:04.444Z,70.53
2022-12-18T21:21:36.545Z,76.45
2022-12-18T21:24:06.971Z,69.80
2022-12-18T21:26:34.246Z,64.25
2022-12-18T21:29:04.373Z,59.47
2022-12-18T21:31:34.019Z,55.17
2022-12-18T21:34:02.379Z,51.47
2022-12-18T21:36:30.954Z,57.83
2022-12-18T21:38:59.055Z,51.65
2022-12-18T21:41:44.770Z,49.75
2022-12-18T21:44:15.203Z,51.55
2022-12-18T21:46:44.239Z,56.17
2022-12-18T21:49:14.558Z,56.95
2022-12-18T21:54:08.450Z,52.03
2022-12-18T21:56:45.277Z,48.92
2022-12-18T21:59:23.449Z,53.00
2022-12-18T22:01:51.839Z,49.00
2022-12-18T22:04:20.011Z,49.53
2022-12-18T22:06:48.587Z,49.58
2022-12-18T22:09:18.767Z,48.40
2022-12-18T22:11:46.268Z,53.72
2022-12-18T22:14:14.954Z,51.30
2022-12-18T22:16:44.568Z,58.92
2022-12-18T22:21:43.973Z,63.22
2022-12-18T22:24:15.270Z,58.47
2022-12-18T22:26:42.934Z,49.60
2022-12-18T22:29:33.394Z,45.78
2022-12-18T22:32:01.617Z,54.42
2022-12-18T22:34:28.735Z,70.25
2022-12-18T22:36:56.072Z,59.15
2022-12-18T22:39:26.676Z,59.38
2022-12-18T22:41:55.917Z,58.00
2022-12-18T22:44:25.782Z,51.08
2022-12-18T22:47:06.640Z,50.85
2022-12-18T22:49:35.318Z,47.15
2022-12-18T22:52:03.963Z,52.38
2022-12-18T22:54:30.994Z,50.58
2022-12-18T22:56:57.998Z,55.75
2022-12-18T22:59:25.118Z,52.47
2022-12-18T23:01:54.510Z,52.67
2022-12-18T23:04:35.957Z,53.88
2022-12-18T23:07:05.212Z,49.92
2022-12-18T23:09:32.839Z,48.17
2022-12-18T23:11:59.816Z,53.92
2022-12-18T23:14:27.711Z,51.10
2022-12-18T23:16:54.564Z,50.17
2022-12-18T23:19:22.672Z,57.03
2022-12-18T23:21:51.365Z,51.78
2022-12-18T23:24:18.454Z,54.25
2022-12-18T23:26:45.279Z,51.15
2022-12-18T23:29:12.164Z,56.50
2022-12-18T23:31:40.010Z,68.85
2022-12-18T23:34:08.063Z,65.85
2022-12-18T23:36:45.236Z,79.40
2022-12-18T23:39:20.889Z,79.43
2022-12-18T23:42:00.817Z,90.85
2022-12-18T23:44:28.268Z,83.90
2022-12-18T23:46:55.542Z,96.43
2022-12-18T23:49:22.494Z,92.45
2022-12-18T23:51:49.763Z,86.70
2022-12-18T23:54:16.674Z,80.78
2022-12-18T23:56:43.507Z,83.00
2022-12-18T23:59:10.586Z,90.88
